Time;durP1;ratioP1;P1;durP2;ratioP2;P2;SDS_P1;SDS_P2;PMS_P1;PMS_P2;Temp;Humidity;BMP_temperature;BMP_pressure;BME280_temperature;BME280_humidity;BME280_pressure;Samples;Min_cycle;Max_cycle;Signal;HPM_P1;HPM_P2
2021/10/19 00:00:20;;;;;;;19.33;15.85;;;17.10;99.90;;;17.39;85.22;101668.53;4842898;29;20098;-68
2021/10/19 00:02:49;;;;;;;16.93;15.23;;;17.10;99.90;;;17.41;85.25;101664.03;4842363;29;20128;-67
2021/10/19 00:05:17;;;;;;;17.08;15.27;;;17.00;99.90;;;17.44;85.17;101669.34;4842925;29;20377;-68
2021/10/19 00:07:45;;;;;;;18.48;15.52;;;17.10;99.90;;;17.42;85.40;101661.31;4843013;29;20050;-68
2021/10/19 00:10:17;;;;;;;17.45;14.35;;;17.10;99.90;;;17.44;85.35;101670.19;4842894;29;20041;-68
2021/10/19 00:12:46;;;;;;;18.55;14.07;;;17.10;99.90;;;17.40;85.53;101660.47;4842993;29;20438;-68
2021/10/19 00:15:18;;;;;;;17.75;13.13;;;17.10;99.90;;;17.49;85.46;101667.47;4842719;29;20404;-67
2021/10/19 00:17:48;;;;;;;14.55;13.02;;;17.10;99.90;;;17.40;85.84;101664.97;4841898;29;20070;-67
2021/10/19 00:20:18;;;;;;;15.13;13.52;;;17.10;99.90;;;17.32;85.78;101635.69;4842832;29;20050;-68
2021/10/19 00:22:46;;;;;;;15.00;13.43;;;17.10;99.90;;;17.42;86.10;101655.13;4842802;29;20042;-68
2021/10/19 00:25:17;;;;;;;14.55;13.02;;;17.10;99.90;;;17.41;86.43;101630.16;4842744;29;20470;-67
2021/10/19 00:27:46;;;;;;;;;;;17.10;99.90;;;17.33;87.08;101639.22;4843254;29;20414;-67
2021/10/19 00:30:15;;;;;;;18.20;14.55;;;17.10;99.90;;;17.35;87.02;101624.91;4843029;29;19979;-68
2021/10/19 00:32:44;;;;;;;17.40;14.38;;;17.10;99.90;;;17.42;87.61;101663.13;4843248;29;20078;-68
2021/10/19 00:35:14;;;;;;;18.10;14.30;;;17.10;99.90;;;17.46;87.59;101649.66;4842819;29;20463;-67
2021/10/19 00:37:42;;;;;;;20.13;16.20;;;17.10;99.90;;;17.37;88.18;101646.28;4842671;29;20049;-68
2021/10/19 00:40:12;;;;;;;19.42;16.17;;;17.00;99.90;;;17.38;88.48;101642.72;4842295;29;20118;-68
2021/10/19 00:42:40;;;;;;;18.02;14.63;;;17.10;99.90;;;17.36;88.76;101641.84;4842628;29;20078;-67
2021/10/19 00:45:10;;;;;;;17.85;15.98;;;17.10;99.90;;;17.35;89.03;101632.94;4842332;29;20480;-68
2021/10/19 00:47:46;;;;;;;20.67;16.00;;;17.00;99.90;;;17.33;89.38;101644.56;4842315;29;20054;-67
2021/10/19 00:50:16;;;;;;;18.98;17.08;;;17.00;99.90;;;17.26;89.62;101645.63;4842879;29;20110;-67
2021/10/19 00:52:45;;;;;;;21.42;17.63;;;17.00;99.90;;;17.10;90.09;101637.91;4842381;29;20073;-67
2021/10/19 00:55:14;;;;;;;22.80;18.13;;;16.90;99.90;;;17.02;90.68;101621.13;4842410;29;20089;-68
2021/10/19 00:57:42;;;;;;;21.25;19.05;;;16.80;99.90;;;17.08;90.80;101633.47;4842750;29;20092;-67
2021/10/19 01:00:12;;;;;;;22.55;20.08;;;16.80;99.90;;;16.82;91.37;101604.53;4842139;29;20070;-67
2021/10/19 01:02:43;;;;;;;23.67;19.52;;;16.70;99.90;;;16.91;92.14;101619.56;4842235;29;20054;-67
2021/10/19 01:05:14;;;;;;;25.98;20.73;;;16.70;99.90;;;16.88;92.80;101617.81;4842529;29;20060;-67
2021/10/19 01:07:43;;;;;;;28.10;21.92;;;16.60;99.90;;;16.75;93.46;101613.59;4842240;29;20061;-67
2021/10/19 01:10:12;;;;;;;23.75;20.42;;;16.60;99.90;;;16.88;93.62;101604.44;4842328;29;20068;-67
2021/10/19 01:12:42;;;;;;;27.92;21.38;;;16.60;99.90;;;16.87;93.80;101601.81;4842090;29;20157;-67
2021/10/19 01:15:13;;;;;;;27.13;21.80;;;16.60;99.90;;;16.79;93.96;101598.38;4844192;29;20078;-67
2021/10/19 01:17:43;;;;;;;25.50;21.05;;;16.60;99.90;;;16.85;94.17;101599.16;4845993;29;20102;-67
2021/10/19 01:20:25;;;;;;;26.30;20.65;;;16.60;99.90;;;16.72;94.86;101586.94;4845651;29;20488;-67
2021/10/19 01:22:55;;;;;;;23.73;19.98;;;16.50;99.90;;;16.49;95.25;101556.19;4845922;29;20054;-67
2021/10/19 01:25:25;;;;;;;25.85;21.83;;;16.50;99.90;;;16.56;95.80;101574.75;4844741;29;20070;-68
2021/10/19 01:27:56;;;;;;;25.40;21.83;;;16.40;99.90;;;16.75;95.89;101580.63;4845915;29;20059;-68
2021/10/19 01:30:25;;;;;;;26.40;21.95;;;16.50;99.90;;;16.70;96.03;101566.50;4845911;29;20046;-67
2021/10/19 01:32:55;;;;;;;24.67;20.23;;;16.50;99.90;;;16.09;96.25;101470.53;4845637;29;20054;-67
2021/10/19 01:35:33;;;;;;;24.83;21.48;;;16.40;99.90;;;16.58;96.75;101548.91;4845721;29;20049;-67
2021/10/19 01:38:03;;;;;;;25.80;22.13;;;16.40;99.90;;;16.65;96.80;101569.25;4846172;29;20095;-67
2021/10/19 01:40:32;;;;;;;25.17;22.47;;;16.40;99.90;;;16.66;97.10;101570.13;4845603;29;20085;-68
2021/10/19 01:43:00;;;;;;;25.15;22.17;;;16.40;99.90;;;16.74;96.99;101566.41;4844388;29;20458;-67
2021/10/19 01:45:29;;;;;;;28.27;22.17;;;16.50;99.90;;;16.76;96.78;101553.88;4845036;29;20123;-68
2021/10/19 01:47:57;;;;;;;24.33;21.75;;;16.50;99.90;;;16.52;96.79;101514.28;4845399;29;20453;-67
2021/10/19 01:50:26;;;;;;;24.58;21.33;;;16.50;99.90;;;16.80;96.77;101565.44;4845210;29;20046;-67
2021/10/19 01:52:55;;;;;;;26.20;23.40;;;16.50;99.90;;;16.86;96.41;101554.63;4845319;29;20528;-67
2021/10/19 01:55:24;;;;;;;24.17;21.60;;;16.60;99.90;;;16.91;96.54;101564.31;4845298;29;20054;-67
2021/10/19 01:57:52;;;;;;;25.00;22.38;;;16.60;99.90;;;16.80;96.79;101539.56;4845303;29;20286;-67
2021/10/19 02:00:21;;;;;;;25.35;22.60;;;16.60;99.90;;;16.87;96.70;101535.88;4845208;29;20070;-67
2021/10/19 02:02:49;;;;;;;24.05;21.65;;;16.60;99.90;;;16.66;96.85;101500.69;4844942;29;20042;-67
2021/10/19 02:05:18;;;;;;;25.90;23.20;;;16.60;99.90;;;16.84;97.05;101532.41;4844879;29;20054;-67
2021/10/19 02:07:46;;;;;;;25.77;22.77;;;16.60;99.90;;;16.92;97.01;101550.03;4844833;29;20129;-67
2021/10/19 02:10:16;;;;;;;29.30;24.27;;;16.60;99.90;;;16.91;97.04;101539.38;4845044;29;20049;-67
2021/10/19 02:12:45;;;;;;;25.60;22.88;;;16.60;99.90;;;16.92;96.82;101534.00;4843823;29;20054;-67
2021/10/19 02:15:13;;;;;;;25.25;22.63;;;16.60;99.90;;;16.88;97.13;101532.28;4845080;29;20409;-67
2021/10/19 02:17:41;;;;;;;27.30;23.80;;;16.60;99.90;;;16.95;97.14;101538.41;4844653;29;20532;-67
2021/10/19 02:20:10;;;;;;;23.85;21.30;;;16.60;99.90;;;16.95;97.20;101541.97;4844545;29;20046;-67
2021/10/19 02:22:39;;;;;;;25.00;22.40;;;16.60;99.90;;;16.96;97.47;101541.03;4844565;29;20505;-67
2021/10/19 02:25:08;;;;;;;26.33;23.58;;;16.70;99.90;;;17.02;97.54;101526.66;4844431;29;20054;-67
2021/10/19 02:27:38;;;;;;;24.98;22.38;;;16.70;99.90;;;17.06;97.23;101531.94;4843545;29;20050;-67
2021/10/19 02:30:08;;;;;;;28.10;23.80;;;16.70;99.90;;;16.87;97.19;101506.47;4844494;29;20094;-67
2021/10/19 02:32:39;;;;;;;25.65;22.17;;;16.80;99.90;;;17.03;97.49;101540.00;4844457;29;20098;-67
2021/10/19 02:35:09;;;;;;;26.70;22.30;;;16.80;99.90;;;17.10;97.34;101543.44;4844712;29;20054;-67
2021/10/19 02:37:38;;;;;;;23.83;21.50;;;16.80;99.90;;;17.08;97.71;101534.56;4844846;29;20065;-67
2021/10/19 02:40:09;;;;;;;25.98;23.30;;;16.80;99.90;;;17.04;97.77;101527.50;4844194;29;20485;-67
2021/10/19 02:42:40;;;;;;;24.48;21.90;;;16.70;99.90;;;17.05;97.75;101530.16;4844308;29;20454;-67
2021/10/19 02:45:10;;;;;;;24.27;21.67;;;16.70;99.90;;;17.03;97.91;101518.59;4844682;29;20511;-67
2021/10/19 02:47:39;;;;;;;24.50;22.02;;;16.80;99.90;;;16.99;97.86;101500.00;4844236;29;20046;-67
2021/10/19 02:50:09;;;;;;;26.37;22.63;;;16.80;99.90;;;17.13;97.84;101509.50;4844388;29;20078;-67
2021/10/19 02:52:38;;;;;;;25.23;22.55;;;16.80;99.90;;;17.14;97.83;101489.88;4844124;29;20049;-66
2021/10/19 02:55:09;;;;;;;24.02;21.52;;;16.80;99.90;;;17.18;97.85;101485.34;4843954;29;20065;-67
2021/10/19 02:57:39;;;;;;;25.95;23.25;;;16.90;99.90;;;17.20;97.74;101485.31;4844038;29;20054;-67
2021/10/19 03:00:10;;;;;;;23.77;21.40;;;16.90;99.90;;;17.11;98.32;101468.53;4843955;29;20557;-67
2021/10/19 03:02:38;;;;;;;;;;;16.80;99.90;;;16.97;98.16;101445.69;4843465;29;20058;-67
2021/10/19 03:05:08;;;;;;;25.48;22.83;;;16.80;99.90;;;17.14;98.72;101479.19;4844143;29;19928;-68
2021/10/19 03:07:36;;;;;;;25.25;22.65;;;16.80;99.90;;;17.20;98.41;101478.16;4844038;29;20057;-67
2021/10/19 03:10:06;;;;;;;25.52;22.38;;;16.80;99.90;;;17.16;98.22;101463.09;4843777;29;20081;-67
2021/10/19 03:12:34;;;;;;;23.40;21.02;;;16.90;99.90;;;17.26;98.08;101466.44;4843695;29;20482;-67
2021/10/19 03:15:05;;;;;;;23.30;21.00;;;16.90;99.90;;;17.23;97.97;101466.53;4844176;29;20038;-67
2021/10/19 03:17:34;;;;;;;23.42;21.02;;;16.90;99.90;;;17.19;98.17;101459.50;4842836;29;20061;-66
2021/10/19 03:20:02;;;;;;;21.33;19.15;;;16.90;99.90;;;17.23;98.07;101472.75;4842696;29;20046;-67
2021/10/19 03:22:31;;;;;;;23.35;20.85;;;16.90;99.90;;;17.29;98.08;101466.38;4843654;29;20058;-66
2021/10/19 03:24:59;;;;;;;21.50;19.30;;;17.00;99.90;;;17.26;98.14;101466.44;4842682;29;20049;-67
2021/10/19 03:27:28;;;;;;;22.73;20.48;;;16.90;99.90;;;17.25;98.40;101480.75;4843677;29;20057;-66
2021/10/19 03:29:56;;;;;;;24.00;21.52;;;16.90;99.90;;;17.24;98.40;101479.84;4843951;29;20054;-67
2021/10/19 03:32:26;;;;;;;22.27;20.17;;;16.90;99.90;;;17.25;98.43;101473.59;4843465;29;20046;-67
2021/10/19 03:34:54;;;;;;;20.10;18.20;;;16.90;99.90;;;17.18;98.54;101474.66;4843405;29;20100;-66
2021/10/19 03:37:23;;;;;;;19.00;17.30;;;17.00;99.90;;;17.27;98.74;101486.91;4842821;29;20061;-67
2021/10/19 03:39:52;;;;;;;18.42;16.65;;;16.90;99.90;;;17.24;99.06;101476.31;4842121;29;20103;-66
2021/10/19 03:42:20;;;;;;;19.88;17.85;;;16.90;99.90;;;17.26;99.28;101496.75;4843491;29;20054;-66
2021/10/19 03:44:48;;;;;;;20.30;18.40;;;16.90;99.90;;;17.24;99.25;101495.03;4843090;29;20473;-66
2021/10/19 03:47:17;;;;;;;21.02;19.02;;;16.90;99.90;;;17.17;99.58;101480.03;4842121;29;20475;-67
2021/10/19 03:49:46;;;;;;;20.45;18.55;;;16.90;99.90;;;17.17;99.86;101498.75;4843098;29;20050;-67
2021/10/19 03:52:15;;;;;;;21.23;19.20;;;16.80;99.90;;;17.20;99.85;101480.84;4843041;29;20398;-67
2021/10/19 03:54:43;;;;;;;22.27;20.17;;;16.90;99.90;;;17.10;100.00;101472.13;4843024;29;20335;-67
2021/10/19 03:57:12;;;;;;;23.20;21.05;;;16.80;99.90;;;17.07;100.00;101476.69;4842978;29;20466;-67
2021/10/19 03:59:40;;;;;;;21.45;19.45;;;16.80;99.90;;;17.23;100.00;101480.75;4843127;29;20050;-67
2021/10/19 04:02:09;;;;;;;21.35;19.45;;;16.90;99.90;;;17.18;100.00;101490.69;4843073;29;20133;-67
2021/10/19 04:04:37;;;;;;;21.38;19.38;;;16.80;99.90;;;17.18;100.00;101496.03;4842818;29;20124;-68
2021/10/19 04:07:07;;;;;;;22.02;20.02;;;16.80;99.90;;;17.19;100.00;101497.78;4842912;29;20054;-69
2021/10/19 04:09:36;;;;;;;23.75;21.55;;;16.80;99.90;;;17.25;100.00;101492.31;4841756;29;20090;-66
2021/10/19 04:12:05;;;;;;;21.88;19.77;;;16.90;99.90;;;17.30;100.00;101500.22;4842738;29;20390;-68
2021/10/19 04:14:34;;;;;;;23.55;21.35;;;16.90;99.90;;;17.30;100.00;101490.44;4842622;29;20054;-66
2021/10/19 04:17:03;;;;;;;22.15;20.05;;;16.90;99.90;;;16.91;100.00;101401.28;4842706;29;20114;-67
2021/10/19 04:19:31;;;;;;;24.08;21.67;;;17.00;99.90;;;17.34;99.95;101485.88;4842644;29;20045;-66
2021/10/19 04:22:00;;;;;;;22.92;20.88;;;17.00;99.90;;;17.35;100.00;101487.63;4842408;29;20050;-65
2021/10/19 04:24:30;;;;;;;24.10;21.60;;;17.00;99.90;;;17.36;100.00;101492.09;4842846;29;20081;-65
2021/10/19 04:26:58;;;;;;;23.57;21.37;;;17.00;99.90;;;17.43;100.00;101485.66;4842899;29;20046;-65
2021/10/19 04:29:26;;;;;;;22.73;20.42;;;17.10;99.90;;;17.05;100.00;101430.38;4842904;29;20382;-65
2021/10/19 04:31:55;;;;;;;28.10;23.88;;;17.10;99.90;;;17.46;99.99;101496.31;4842751;29;20106;-65
2021/10/19 04:34:23;;;;;;;26.50;23.90;;;17.10;99.90;;;17.42;100.00;101500.81;4842633;29;20049;-65
2021/10/19 04:36:52;;;;;;;28.63;25.67;;;17.10;99.90;;;17.34;100.00;101486.78;4841581;29;20057;-65
2021/10/19 04:39:20;;;;;;;30.48;27.38;;;17.10;99.90;;;17.38;100.00;101487.59;4842351;29;20077;-65
2021/10/19 04:41:51;;;;;;;30.73;27.45;;;17.10;99.90;;;17.37;100.00;101493.81;4842622;29;20401;-65
2021/10/19 04:44:19;;;;;;;30.63;27.35;;;17.10;99.90;;;17.31;100.00;101459.19;4842359;29;20098;-65
2021/10/19 04:46:49;;;;;;;30.00;26.97;;;17.10;99.90;;;17.42;100.00;101476.75;4842471;29;20453;-65
2021/10/19 04:49:18;;;;;;;32.42;27.45;;;17.10;99.90;;;17.49;100.00;101470.41;4844131;29;20082;-65
2021/10/19 04:51:46;;;;;;;30.80;27.58;;;17.10;99.90;;;17.51;100.00;101473.03;4846443;29;20060;-66
2021/10/19 04:54:16;;;;;;;28.17;25.23;;;17.10;99.90;;;17.50;100.00;101463.28;4845978;29;20038;-65
2021/10/19 04:56:45;;;;;;;29.27;26.27;;;17.20;99.90;;;17.54;100.00;101456.91;4846441;29;20050;-65
2021/10/19 04:59:15;;;;;;;30.85;27.45;;;17.20;99.90;;;17.57;100.00;101457.75;4845999;29;20042;-65
2021/10/19 05:01:43;;;;;;;28.90;26.00;;;17.20;99.90;;;17.54;100.00;101463.13;4846168;29;20042;-65
2021/10/19 05:04:15;;;;;;;29.30;26.17;;;17.20;99.90;;;17.53;100.00;101464.06;4845993;29;20390;-65
2021/10/19 05:06:45;;;;;;;28.90;26.00;;;17.20;99.90;;;17.32;100.00;101412.84;4846101;29;20416;-65
2021/10/19 05:09:14;;;;;;;29.98;26.75;;;17.20;99.90;;;17.33;100.00;101419.91;4846061;29;20049;-65
2021/10/19 05:11:42;;;;;;;27.80;25.00;;;17.30;99.90;;;17.61;100.00;101463.88;4846187;29;20050;-65
2021/10/19 05:14:11;;;;;;;28.42;25.05;;;17.30;99.90;;;17.65;100.00;101461.09;4845946;29;20462;-66
2021/10/19 05:16:42;;;;;;;28.67;25.70;;;17.30;99.90;;;17.60;100.00;101441.59;4845962;29;20074;-66
2021/10/19 05:19:11;;;;;;;26.65;23.95;;;17.40;99.90;;;17.73;99.80;101466.28;4846257;29;20081;-65
2021/10/19 05:21:39;;;;;;;26.52;23.95;;;17.40;99.90;;;17.74;100.00;101458.22;4845671;29;20481;-66
2021/10/19 05:24:08;;;;;;;28.58;25.73;;;17.40;99.90;;;17.37;99.93;101384.16;4845701;29;20572;-66
2021/10/19 05:26:36;;;;;;;28.70;25.80;;;17.40;99.90;;;17.77;99.99;101487.56;4845540;29;20419;-66
2021/10/19 05:29:05;;;;;;;28.63;25.70;;;17.40;99.90;;;17.78;99.98;101454.53;4845666;29;20110;-66
2021/10/19 05:31:33;;;;;;;27.70;24.90;;;17.40;99.90;;;17.73;99.86;101450.22;4845758;29;20053;-66
2021/10/19 05:34:03;;;;;;;29.50;26.60;;;17.40;99.90;;;17.74;100.00;101460.00;4844541;29;20054;-66
2021/10/19 05:36:32;;;;;;;29.07;26.27;;;17.40;99.90;;;17.81;100.00;101462.47;4845521;29;20073;-66
2021/10/19 05:39:05;;;;;;;28.85;25.95;;;17.40;99.90;;;17.83;99.97;101460.66;4845406;29;20295;-65
2021/10/19 05:41:33;;;;;;;28.67;25.73;;;17.50;99.90;;;17.83;99.99;101468.69;4845604;29;20137;-66
2021/10/19 05:44:01;;;;;;;30.58;27.02;;;17.50;99.90;;;17.83;100.00;101470.47;4845528;29;20050;-66
2021/10/19 05:46:30;;;;;;;30.63;27.50;;;17.50;99.90;;;17.80;100.00;101459.84;4845209;29;20050;-65
2021/10/19 05:48:58;;;;;;;29.98;26.98;;;17.50;99.90;;;17.84;100.00;101458.84;4845200;29;20072;-65
2021/10/19 05:51:28;;;;;;;30.50;27.30;;;17.50;99.90;;;17.82;100.00;101455.34;4845444;29;20477;-66
2021/10/19 05:53:57;;;;;;;30.92;27.83;;;17.50;99.90;;;17.80;100.00;101450.03;4844092;29;20555;-66
2021/10/19 05:56:25;;;;;;;33.88;30.38;;;17.50;99.90;;;17.83;100.00;101451.72;4845399;29;20136;-66
2021/10/19 05:58:53;;;;;;;31.65;28.35;;;17.50;99.90;;;17.80;100.00;101454.50;4845006;29;20066;-66
2021/10/19 06:01:22;;;;;;;31.88;28.40;;;17.50;99.90;;;17.78;100.00;101441.16;4844235;29;20129;-66
2021/10/19 06:03:50;;;;;;;32.45;29.13;;;17.50;99.90;;;17.79;100.00;101452.72;4845254;29;20049;-66
2021/10/19 06:06:19;;;;;;;30.55;27.38;;;17.40;99.90;;;17.85;100.00;101453.47;4843640;29;20114;-66
2021/10/19 06:08:51;;;;;;;30.67;27.58;;;17.50;99.90;;;17.84;100.00;101446.38;4845141;29;20519;-66
2021/10/19 06:11:20;;;;;;;31.30;27.88;;;17.50;99.90;;;17.87;100.00;101445.38;4844871;29;20052;-66
2021/10/19 06:13:48;;;;;;;29.48;26.50;;;17.50;99.90;;;17.67;100.00;101416.44;4844840;29;20102;-66
2021/10/19 06:16:17;;;;;;;30.23;26.98;;;17.50;99.90;;;17.87;100.00;101445.38;4844727;29;20050;-66
2021/10/19 06:18:45;;;;;;;28.05;25.33;;;17.50;99.90;;;17.90;100.00;101440.81;4844560;29;20046;-66
2021/10/19 06:21:15;;;;;;;28.10;25.50;;;17.50;99.90;;;17.85;100.00;101432.03;4844665;29;20046;-66
2021/10/19 06:23:43;;;;;;;27.67;24.88;;;17.60;99.90;;;17.92;100.00;101427.44;4844616;29;20096;-66
2021/10/19 06:26:13;;;;;;;24.75;22.25;;;17.60;99.90;;;17.95;100.00;101438.03;4843552;29;20626;-66
2021/10/19 06:28:41;;;;;;;25.45;23.05;;;17.60;99.90;;;17.92;100.00;101444.34;4844526;29;20046;-66
2021/10/19 06:31:10;;;;;;;24.10;21.80;;;17.60;99.90;;;17.98;100.00;101446.88;4844383;29;20493;-65
2021/10/19 06:33:38;;;;;;;25.38;22.83;;;17.60;99.90;;;18.00;100.00;101444.19;4844425;29;20054;-66
2021/10/19 06:36:07;;;;;;;24.65;22.25;;;17.60;99.90;;;17.89;100.00;101424.81;4844935;29;20084;-66
2021/10/19 06:38:35;;;;;;;23.17;20.73;;;17.70;99.90;;;17.40;100.00;101374.28;4844324;29;20094;-66
2021/10/19 06:41:04;;;;;;;23.70;21.50;;;17.70;99.90;;;18.04;100.00;101443.16;4844421;29;20041;-65
2021/10/19 06:43:33;;;;;;;23.92;21.63;;;17.60;99.90;;;18.06;100.00;101454.72;4844198;29;20054;-65
2021/10/19 06:46:02;;;;;;;26.13;23.60;;;17.70;99.90;;;18.07;100.00;101453.81;4844541;29;20094;-66
2021/10/19 06:48:31;;;;;;;24.42;22.13;;;17.80;99.90;;;18.11;100.00;101454.59;4844189;29;20365;-66
2021/10/19 06:50:59;;;;;;;25.95;23.15;;;17.80;99.90;;;18.02;100.00;101448.56;4844383;29;20378;-66
2021/10/19 06:53:27;;;;;;;26.10;23.67;;;17.80;99.90;;;18.03;100.00;101453.00;4844039;29;20132;-66
2021/10/19 06:55:59;;;;;;;26.98;23.92;;;17.70;99.90;;;18.07;100.00;101453.81;4844296;29;20084;-66
2021/10/19 06:58:28;;;;;;;27.80;25.15;;;17.70;99.90;;;18.08;100.00;101465.41;4844238;29;20405;-67
2021/10/19 07:00:59;;;;;;;26.10;23.50;;;17.70;99.90;;;18.09;100.00;101457.31;4844046;29;20508;-66
2021/10/19 07:03:28;;;;;;;25.08;22.50;;;17.70;99.90;;;18.14;100.00;101473.28;4843864;29;20046;-65
2021/10/19 07:06:00;;;;;;;25.20;22.80;;;17.80;99.90;;;18.10;100.00;101459.06;4843766;29;20041;-66
2021/10/19 07:08:28;;;;;;;24.38;21.98;;;17.70;99.90;;;18.09;100.00;101451.97;4843842;29;20493;-65
2021/10/19 07:10:57;;;;;;;24.85;22.35;;;17.80;99.90;;;18.13;100.00;101464.34;4843989;29;20404;-65
2021/10/19 07:13:25;;;;;;;25.35;22.90;;;17.80;99.90;;;18.04;100.00;101437.78;4843956;29;20449;-65
2021/10/19 07:15:57;;;;;;;24.80;22.40;;;17.80;99.90;;;18.14;100.00;101458.06;4843692;29;20132;-65
2021/10/19 07:18:27;;;;;;;25.08;22.58;;;17.80;99.90;;;18.07;100.00;101445.78;4843652;29;20103;-65
2021/10/19 07:20:55;;;;;;;24.90;22.60;;;17.90;99.90;;;18.21;100.00;101458.81;4843606;29;20050;-65
2021/10/19 07:23:24;;;;;;;24.73;22.52;;;17.90;99.90;;;18.15;100.00;101445.56;4843608;29;20129;-65
2021/10/19 07:25:53;;;;;;;22.83;20.73;;;17.90;99.90;;;18.26;100.00;101460.44;4843539;29;20125;-65
2021/10/19 07:28:21;;;;;;;21.35;19.25;;;17.90;99.90;;;17.67;100.00;101364.75;4843479;29;20149;-65
2021/10/19 07:30:50;;;;;;;19.63;17.92;;;17.90;99.90;;;18.22;100.00;101485.53;4843486;29;20081;-65
2021/10/19 07:33:20;;;;;;;19.38;17.60;;;17.90;99.90;;;18.22;100.00;101468.56;4843873;29;20056;-65
2021/10/19 07:35:49;;;;;;;22.80;18.15;;;17.90;99.90;;;18.33;100.00;101467.38;4843617;29;20046;-65
2021/10/19 07:38:18;;;;;;;20.15;18.15;;;18.00;99.90;;;18.32;100.00;101468.31;4843515;29;20137;-65
2021/10/19 07:40:47;;;;;;;19.13;17.33;;;18.00;99.90;;;18.33;100.00;101466.53;4843329;29;20054;-65
2021/10/19 07:43:15;;;;;;;18.90;17.10;;;18.00;99.90;;;18.42;100.00;101475.22;4843048;29;20046;-65
2021/10/19 07:45:44;;;;;;;19.80;18.00;;;18.10;99.90;;;18.35;100.00;101468.22;4843155;29;20090;-65
2021/10/19 07:48:13;;;;;;;19.52;17.77;;;18.10;99.90;;;18.32;100.00;101460.28;4843147;29;20045;-65
2021/10/19 07:50:46;;;;;;;19.98;18.17;;;18.00;99.90;;;18.27;100.00;101456.84;4843047;29;20049;-64
2021/10/19 07:53:16;;;;;;;19.95;18.13;;;18.00;99.90;;;18.34;100.00;101457.53;4843592;29;20160;-65
2021/10/19 07:55:46;;;;;;;20.38;18.38;;;18.00;99.90;;;18.22;100.00;101445.34;4843376;29;20374;-65
2021/10/19 07:58:15;;;;;;;21.17;19.23;;;18.00;99.90;;;18.26;100.00;101457.75;4842972;29;20046;-65
2021/10/19 08:00:43;;;;;;;21.38;19.38;;;17.90;99.90;;;18.25;100.00;101464.03;4843191;29;20088;-65
2021/10/19 08:03:12;;;;;;;21.73;19.63;;;17.90;99.90;;;18.29;100.00;101470.19;4843243;29;20050;-65
2021/10/19 08:05:46;;;;;;;23.80;21.40;;;17.90;99.90;;;18.21;100.00;101440.06;4843029;29;20068;-65
2021/10/19 08:08:16;;;;;;;24.90;22.35;;;18.00;99.90;;;18.27;100.00;101447.94;4842870;29;20045;-65
2021/10/19 08:10:46;;;;;;;;;;;18.00;99.90;;;18.27;100.00;101455.97;4843488;29;20042;-65
2021/10/19 08:13:18;;;;;;;27.15;24.13;;;18.00;99.90;;;18.27;100.00;101464.00;4842545;29;19924;-66
2021/10/19 08:15:48;;;;;;;26.52;23.85;;;18.00;99.90;;;18.22;100.00;101452.50;4842716;29;20553;-65
2021/10/19 08:18:17;;;;;;;27.05;24.30;;;18.00;99.90;;;18.22;100.00;101477.50;4841399;29;20102;-66
2021/10/19 08:20:47;;;;;;;28.52;25.50;;;17.90;99.90;;;18.31;100.00;101466.53;4842628;29;20053;-65
2021/10/19 08:23:15;;;;;;;28.20;25.38;;;18.00;99.90;;;18.36;100.00;101466.44;4842325;29;20099;-65
2021/10/19 08:25:44;;;;;;;27.17;24.42;;;18.00;99.90;;;18.37;100.00;101465.53;4842513;29;20413;-65
2021/10/19 08:28:19;;;;;;;27.83;24.38;;;18.10;99.90;;;18.28;100.00;101463.06;4841501;29;20062;-65
2021/10/19 08:30:48;;;;;;;25.80;23.10;;;18.00;99.90;;;18.39;100.00;101461.00;4842831;29;20053;-65
2021/10/19 08:33:17;;;;;;;26.70;24.00;;;18.00;99.90;;;18.39;100.00;101464.53;4842724;29;20050;-65
2021/10/19 08:35:47;;;;;;;24.70;22.20;;;18.10;99.90;;;18.38;100.00;101451.19;4842917;29;20066;-65
2021/10/19 08:38:16;;;;;;;23.80;21.50;;;18.00;99.90;;;18.33;100.00;101442.41;4842279;29;20575;-65
2021/10/19 08:40:45;;;;;;;24.23;21.83;;;18.10;99.90;;;18.48;100.00;101458.09;4842501;29;20394;-65
2021/10/19 08:43:14;;;;;;;22.58;20.38;;;18.10;99.90;;;18.51;100.00;101456.19;4842040;29;20054;-65
2021/10/19 08:45:43;;;;;;;21.75;19.45;;;18.20;99.90;;;18.50;100.00;101459.81;4841335;29;20122;-65
2021/10/19 08:48:11;;;;;;;21.98;19.73;;;18.20;99.90;;;18.51;100.00;101458.88;4842247;29;20044;-66
2021/10/19 08:50:40;;;;;;;20.75;18.65;;;18.20;99.90;;;18.43;100.00;101463.56;4842256;29;20054;-66
2021/10/19 08:53:10;;;;;;;22.15;19.95;;;18.10;99.90;;;18.43;100.00;101463.56;4842489;29;20122;-66
2021/10/19 08:55:38;;;;;;;22.90;20.55;;;18.10;99.90;;;18.50;100.00;101459.81;4842140;29;20130;-67
2021/10/19 08:58:12;;;;;;;22.67;20.48;;;18.20;99.90;;;18.52;100.00;101460.66;4841243;29;20557;-66
2021/10/19 09:00:41;;;;;;;22.67;20.38;;;18.20;99.90;;;18.53;100.00;101466.88;4842304;29;20117;-66
2021/10/19 09:03:10;;;;;;;23.75;21.45;;;18.20;99.90;;;18.56;100.00;101470.34;4842238;29;20404;-68
2021/10/19 09:05:46;;;;;;;26.02;23.23;;;18.20;99.90;;;18.54;100.00;101469.50;4842189;29;20125;-67
2021/10/19 09:08:19;;;;;;;24.00;21.50;;;18.20;99.90;;;18.57;100.00;101472.13;4842433;29;20142;-67
2021/10/19 09:10:48;;;;;;;25.45;22.85;;;18.20;99.90;;;18.41;100.00;101451.97;4842381;29;20038;-68
2021/10/19 09:13:19;;;;;;;24.83;22.23;;;18.20;99.90;;;18.63;100.00;101474.63;4841083;29;20465;-67
2021/10/19 09:15:50;;;;;;;24.40;21.75;;;18.30;99.90;;;18.54;100.00;101480.22;4842673;29;20050;-67
2021/10/19 09:18:22;;;;;;;25.15;22.60;;;18.20;99.90;;;18.46;100.00;101476.00;4842687;29;20061;-66
2021/10/19 09:20:54;;;;;;;24.67;22.23;;;18.20;99.90;;;18.48;100.00;101476.84;4842247;29;20054;-67
2021/10/19 09:23:28;;;;;;;28.30;23.20;;;18.10;99.90;;;18.36;100.00;101479.81;4841197;29;20105;-66
2021/10/19 09:26:01;;;;;;;25.58;22.88;;;18.10;99.90;;;18.44;100.00;101477.84;4842097;29;20133;-66
2021/10/19 09:28:37;;;;;;;23.65;21.23;;;18.10;99.90;;;18.50;100.00;101473.22;4841138;29;20513;-66
2021/10/19 09:31:07;;;;;;;25.48;22.80;;;18.10;99.90;;;18.43;100.00;101460.88;4842148;29;20042;-66
2021/10/19 09:33:36;;;;;;;27.27;23.77;;;18.20;99.90;;;18.53;100.00;101481.16;4842045;29;20050;-66
2021/10/19 09:36:07;;;;;;;25.95;23.30;;;18.20;99.90;;;18.59;100.00;101488.16;4843302;29;20053;-67
2021/10/19 09:38:48;;;;;;;25.40;22.02;;;18.20;99.90;;;18.60;100.00;101469.34;4845367;29;20496;-66
2021/10/19 09:41:17;;;;;;;24.40;21.90;;;18.30;99.90;;;18.65;100.00;101472.78;4845589;29;20058;-66
2021/10/19 09:43:45;;;;;;;26.85;24.02;;;18.30;99.90;;;18.71;100.00;101483.34;4845259;29;20453;-66
2021/10/19 09:46:13;;;;;;;24.83;21.63;;;18.40;99.90;;;18.73;100.00;101489.53;4844285;29;20050;-67
2021/10/19 09:48:45;;;;;;;24.38;21.80;;;18.40;99.90;;;18.77;100.00;101483.19;4844145;29;20408;-68
2021/10/19 09:51:14;;;;;;;23.73;21.35;;;18.40;99.90;;;18.68;100.00;101464.66;4845105;29;20046;-70
2021/10/19 09:53:46;;;;;;;24.08;21.48;;;18.40;99.90;;;18.82;100.00;101477.66;4845342;29;20050;-69
2021/10/19 09:56:16;;;;;;;25.17;21.48;;;18.50;99.90;;;18.78;100.00;101481.34;4845473;29;20397;-69
2021/10/19 09:58:45;;;;;;;23.13;20.55;;;18.50;99.90;;;18.81;100.00;101466.06;4845088;29;20482;-69
2021/10/19 10:01:13;;;;;;;24.15;21.60;;;18.50;99.90;;;18.85;100.00;101477.59;4845002;29;20408;-69
2021/10/19 10:03:46;;;;;;;23.38;20.83;;;18.50;99.90;;;18.84;100.00;101474.03;4845119;29;20405;-68
2021/10/19 10:06:15;;;;;;;22.75;20.45;;;18.50;99.90;;;18.86;100.00;101485.59;4844974;29;20057;-68